Time;durP1;ratioP1;P1;durP2;ratioP2;P2;SDS_P1;SDS_P2;PMS_P1;PMS_P2;Temp;Humidity;BMP_temperature;BMP_pressure;BME280_temperature;BME280_humidity;BME280_pressure;Samples;Min_cycle;Max_cycle;Signal;HPM_P1;HPM_P2
2019/05/24 00:04:11;;;;;;;7.3;5.8;;;;;;;10.07;79.56445;938.3977;;;;
2019/05/24 00:06:51;;;;;;;7.5;5.6;;;;;;;10.18;78.9209;938.3837;;;;
2019/05/24 00:09:07;;;;;;;6.6;5.4;;;;;;;10.04;79.2041;938.3456;;;;
2019/05/24 00:11:33;;;;;;;7.2;5.3;;;;;;;9.66;80.74121;938.4017;;;;
2019/05/24 00:14:06;;;;;;;7.7;6;;;;;;;9.37;82.45215;938.3297;;;;
2019/05/24 00:16:42;;;;;;;8.6;5.5;;;;;;;9.37;82.55273;938.3003;;;;
2019/05/24 00:19:19;;;;;;;6.2;5.6;;;;;;;9.57;81.5332;938.2692;;;;
2019/05/24 00:21:48;;;;;;;6.5;5.5;;;;;;;9.72;80.75293;938.2729;;;;
2019/05/24 00:24:17;;;;;;;11.6;5.9;;;;;;;9.76;80.64746;938.2265;;;;
2019/05/24 00:27:00;;;;;;;12.5;6.1;;;;;;;9.36;82.75781;938.2159;;;;
2019/05/24 00:29:23;;;;;;;6.8;5.3;;;;;;;9.44;82.22656;938.2006;;;;
2019/05/24 00:31:51;;;;;;;6.9;5.6;;;;;;;9.27;82.62793;938.1814;;;;
2019/05/24 00:34:18;;;;;;;10.7;6;;;;;;;9.5;81.72461;938.1656;;;;
2019/05/24 00:36:52;;;;;;;9.8;5.9;;;;;;;9.47;81.92383;938.1429;;;;
2019/05/24 00:39:36;;;;;;;7.7;6.4;;;;;;;9.76;80.62402;938.1501;;;;
2019/05/24 00:42:04;;;;;;;7.2;5.9;;;;;;;9.68;80.9834;938.1158;;;;
2019/05/24 00:45:11;;;;;;;7.7;6.2;;;;;;;9.85;80.42285;938.1213;;;;
2019/05/24 00:47:44;;;;;;;9.6;6.1;;;;;;;9.89;79.62207;938.113;;;;
2019/05/24 00:50:05;;;;;;;7.1;5.8;;;;;;;9.89;79.73633;938.1003;;;;
2019/05/24 00:52:41;;;;;;;6.1;5.4;;;;;;;9.66;80.85645;938.1211;;;;
2019/05/24 00:55:13;;;;;;;6.5;5.4;;;;;;;9.9;79.78125;938.0869;;;;
2019/05/24 00:57:41;;;;;;;6.1;5.4;;;;;;;9.76;79.85938;938.108;;;;
2019/05/24 01:00:26;;;;;;;6.5;5.4;;;;;;;9.7;80.09863;938.0373;;;;
2019/05/24 01:03:18;;;;;;;7.3;5.8;;;;;;;9.69;79.9043;938.0634;;;;
2019/05/24 01:06:06;;;;;;;6.2;5.6;;;;;;;9.77;79.3252;938.0262;;;;
2019/05/24 01:08:33;;;;;;;7.2;5.8;;;;;;;9.65;80.02148;938.0334;;;;
2019/05/24 01:11:01;;;;;;;7.7;5.4;;;;;;;9.38;80.97363;938.0278;;;;
2019/05/24 01:13:25;;;;;;;7.4;6.1;;;;;;;9.11;82.51563;938.0183;;;;
2019/05/24 01:15:55;;;;;;;6.7;5.9;;;;;;;9.24;82.24512;938.0148;;;;
2019/05/24 01:18:21;;;;;;;8.2;6;;;;;;;9.45;81.07813;937.9838;;;;
2019/05/24 01:20:58;;;;;;;8.1;5.8;;;;;;;9.44;81.25879;937.9377;;;;
2019/05/24 01:23:24;;;;;;;7.7;6;;;;;;;9.64;80.08789;937.9451;;;;
2019/05/24 01:26:05;;;;;;;9;5.8;;;;;;;9.75;79.62988;937.9099;;;;
2019/05/24 01:28:56;;;;;;;7.5;5.9;;;;;;;9.77;79.24512;937.9117;;;;
2019/05/24 01:31:25;;;;;;;7.3;6;;;;;;;9.33;81.22656;937.9772;;;;
2019/05/24 01:33:58;;;;;;;7.6;5.8;;;;;;;9.46;80.47559;937.9108;;;;
2019/05/24 01:36:26;;;;;;;7.6;6;;;;;;;9.35;80.80859;937.9369;;;;
2019/05/24 01:39:04;;;;;;;8.3;6.2;;;;;;;9.04;82.25098;937.9568;;;;
2019/05/24 01:41:33;;;;;;;6.8;6.1;;;;;;;8.98;82.91211;937.9741;;;;
2019/05/24 01:44:07;;;;;;;13.6;6.5;;;;;;;8.91;83.29688;937.9634;;;;
2019/05/24 01:46:41;;;;;;;11.4;6.5;;;;;;;9.23;82.20996;937.944;;;;
2019/05/24 01:49:14;;;;;;;8;6;;;;;;;9.45;80.4873;937.9067;;;;
2019/05/24 01:51:40;;;;;;;8.1;6.5;;;;;;;9.56;80.2793;937.8588;;;;
2019/05/24 01:54:17;;;;;;;9.4;6.4;;;;;;;9.39;81.07715;937.9422;;;;
2019/05/24 01:56:50;;;;;;;7.9;6.5;;;;;;;9.62;79.87793;937.8837;;;;
2019/05/24 01:59:36;;;;;;;8.1;6.3;;;;;;;9.7;79.0625;937.9053;;;;
2019/05/24 02:02:02;;;;;;;8.2;6.4;;;;;;;9.35;81.05957;937.9289;;;;
2019/05/24 02:04:34;;;;;;;7.6;6.1;;;;;;;9.41;80.39941;937.7878;;;;
2019/05/24 02:07:04;;;;;;;7.4;6.2;;;;;;;9.24;81.31055;937.9092;;;;
2019/05/24 02:09:29;;;;;;;7;5.9;;;;;;;9.38;80.7793;937.8372;;;;
2019/05/24 02:12:00;;;;;;;9.3;6.3;;;;;;;9.06;81.92676;937.8358;;;;
2019/05/24 02:14:24;;;;;;;8.6;6.7;;;;;;;8.92;82.73145;937.7762;;;;
2019/05/24 02:17:02;;;;;;;7.8;6.5;;;;;;;9.22;81.15918;937.8604;;;;
2019/05/24 02:19:37;;;;;;;9;6.8;;;;;;;8.98;81.64941;937.8175;;;;
2019/05/24 02:22:09;;;;;;;7.2;6.3;;;;;;;9.03;81.48926;937.7622;;;;
2019/05/24 02:24:48;;;;;;;8.1;6.4;;;;;;;9.18;80.91309;937.796;;;;
2019/05/24 02:27:29;;;;;;;7.7;6.3;;;;;;;9.14;80.53125;937.786;;;;
2019/05/24 02:29:50;;;;;;;7;6.3;;;;;;;8.88;81.58496;937.7375;;;;
2019/05/24 02:32:25;;;;;;;7.3;6.4;;;;;;;8.61;83.46582;937.7062;;;;
2019/05/24 02:34:46;;;;;;;10.2;6.6;;;;;;;8.74;82.58105;937.7795;;;;
2019/05/24 02:37:37;;;;;;;9.3;6.6;;;;;;;8.99;81.42578;937.6764;;;;
2019/05/24 02:40:06;;;;;;;8.3;7;;;;;;;8.5;83.97754;937.6691;;;;
2019/05/24 02:42:37;;;;;;;13.8;6.8;;;;;;;8.49;84.19336;937.6866;;;;
2019/05/24 02:45:07;;;;;;;13.7;7.9;;;;;;;8.82;82.75781;937.6834;;;;
2019/05/24 02:47:42;;;;;;;20;9;;;;;;;8.77;82.83691;937.6458;;;;
2019/05/24 02:50:11;;;;;;;13.4;7.6;;;;;;;8.87;82.32324;937.7175;;;;
2019/05/24 02:52:40;;;;;;;11.1;7.7;;;;;;;8.9;81.97559;937.7228;;;;
2019/05/24 02:55:06;;;;;;;10.8;7;;;;;;;8.87;81.93457;937.7134;;;;
2019/05/24 02:57:36;;;;;;;9.4;6.8;;;;;;;8.82;81.99414;937.7684;;;;
2019/05/24 03:00:02;;;;;;;9.3;6.7;;;;;;;8.92;81.45703;937.7254;;;;
2019/05/24 03:02:31;;;;;;;8.7;7.1;;;;;;;9;81.14258;937.7178;;;;
2019/05/24 03:05:08;;;;;;;7.5;6.7;;;;;;;9.08;80.70117;937.7668;;;;
2019/05/24 03:07:34;;;;;;;8.4;6.6;;;;;;;8.93;80.66309;937.7709;;;;
2019/05/24 03:10:07;;;;;;;10;7.3;;;;;;;8.76;81.35645;937.7227;;;;
2019/05/24 03:12:41;;;;;;;8.7;7;;;;;;;8.68;81.5;937.7341;;;;
2019/05/24 03:15:12;;;;;;;9.6;7.2;;;;;;;8.46;82.94922;937.6852;;;;
2019/05/24 03:17:45;;;;;;;9.8;7;;;;;;;8.15;84.96484;937.7076;;;;
2019/05/24 03:20:31;;;;;;;8.6;7;;;;;;;8.26;84.375;937.6686;;;;
2019/05/24 03:23:12;;;;;;;9.4;7;;;;;;;8.47;83.54004;937.5068;;;;
2019/05/24 03:25:34;;;;;;;9;7.2;;;;;;;8.61;83;937.5875;;;;
2019/05/24 03:28:18;;;;;;;8.2;6.5;;;;;;;8.26;83.83105;937.6258;;;;
2019/05/24 03:30:41;;;;;;;10.2;7.5;;;;;;;7.92;85.96387;937.6509;;;;
2019/05/24 03:33:14;;;;;;;11.3;7.6;;;;;;;8.07;85.34766;937.6507;;;;
2019/05/24 03:35:55;;;;;;;9.6;7.5;;;;;;;8.28;84.00488;937.5944;;;;
2019/05/24 03:38:19;;;;;;;9.9;7.6;;;;;;;8.14;85.00977;937.6027;;;;
2019/05/24 03:40:54;;;;;;;21.2;8.1;;;;;;;8.42;83.50879;937.6758;;;;
2019/05/24 03:43:22;;;;;;;18.6;10.9;;;;;;;8.67;82.47852;937.6078;;;;
2019/05/24 03:45:50;;;;;;;17.5;14.8;;;;;;;8.61;82.57813;937.5963;;;;
2019/05/24 03:48:33;;;;;;;28.7;22.5;;;;;;;8.57;82.61816;937.6077;;;;
2019/05/24 03:51:03;;;;;;;17.7;13.2;;;;;;;8.73;82.16992;937.5938;;;;
2019/05/24 03:53:39;;;;;;;12;10.7;;;;;;;8.71;82.06445;937.6506;;;;
2019/05/24 03:56:21;;;;;;;16.5;11.2;;;;;;;8.8;81.43359;937.6344;;;;
2019/05/24 03:58:43;;;;;;;13.6;10;;;;;;;8.71;81.28027;937.6552;;;;
2019/05/24 04:02:39;;;;;;;15.7;9.8;;;;;;;8.6;81.47559;937.6685;;;;
2019/05/24 04:05:20;;;;;;;16.7;9.9;;;;;;;8.69;81.27637;937.6439;;;;
2019/05/24 04:07:43;;;;;;;13.6;8.6;;;;;;;8.5;81.79785;937.6731;;;;
2019/05/24 04:10:09;;;;;;;11.6;7.4;;;;;;;8.33;82.53711;937.6705;;;;
2019/05/24 04:12:41;;;;;;;9.2;7.1;;;;;;;8.21;83.18262;937.7277;;;;
2019/05/24 04:15:41;;;;;;;9.7;6.8;;;;;;;8.02;84.68066;937.6761;;;;
2019/05/24 04:18:16;;;;;;;8.5;7.2;;;;;;;7.95;85.49512;937.6903;;;;
2019/05/24 04:20:46;;;;;;;9.2;7;;;;;;;8.19;84.80566;937.6315;;;;
2019/05/24 04:23:24;;;;;;;12.2;7.3;;;;;;;8.17;84.75488;937.6802;;;;
2019/05/24 04:26:06;;;;;;;11.5;7.6;;;;;;;8.21;84.60449;937.7319;;;;
2019/05/24 04:28:34;;;;;;;9.1;6.8;;;;;;;8.23;84.57422;937.6331;;;;
2019/05/24 04:30:58;;;;;;;8.2;6.8;;;;;;;8.15;85.0918;937.6227;;;;
2019/05/24 04:33:32;;;;;;;9.9;6.7;;;;;;;8.15;84.68066;937.5553;;;;
2019/05/24 04:35:58;;;;;;;10.4;7.3;;;;;;;7.94;86.28613;937.5561;;;;
2019/05/24 04:38:30;;;;;;;12.6;7.2;;;;;;;8.09;85.64648;937.5599;;;;
2019/05/24 04:40:53;;;;;;;13.8;7.4;;;;;;;8.24;84.91602;937.5603;;;;
2019/05/24 04:43:27;;;;;;;11.7;7.2;;;;;;;7.96;86.17773;937.5588;;;;
2019/05/24 04:45:58;;;;;;;11.8;7;;;;;;;8.12;86.37891;937.6;;;;
2019/05/24 04:48:31;;;;;;;12;7;;;;;;;8.41;84.89355;937.5709;;;;
2019/05/24 04:51:05;;;;;;;8.1;7.2;;;;;;;8.2;85.75879;937.5339;;;;
2019/05/24 04:53:28;;;;;;;11.1;7.6;;;;;;;8.08;86.7002;937.5272;;;;
2019/05/24 04:56:01;;;;;;;11.5;7.7;;;;;;;8.03;86.99805;937.5438;;;;
2019/05/24 04:58:28;;;;;;;8.6;7.6;;;;;;;8.05;86.57031;937.5466;;;;
2019/05/24 05:00:53;;;;;;;11.3;7.6;;;;;;;8.21;85.59277;937.5289;;;;
2019/05/24 05:03:26;;;;;;;15.2;7.9;;;;;;;8.38;84.93359;937.5352;;;;
2019/05/24 05:05:51;;;;;;;8.7;6.8;;;;;;;8.69;84.00684;937.5209;;;;
2019/05/24 05:08:25;;;;;;;11.4;5.4;;;;;;;9.69;80.31348;937.5211;;;;
2019/05/24 05:10:54;;;;;;;11;4.7;;;;;;;10.96;75.39551;937.4868;;;;
2019/05/24 05:13:19;;;;;;;6.9;4.5;;;;;;;11.89;71.7666;937.4467;;;;
2019/05/24 05:15:43;;;;;;;8.8;4.4;;;;;;;12.69;68.58301;937.437;;;;
2019/05/24 05:18:13;;;;;;;10.6;4.4;;;;;;;12.72;68.3252;937.4083;;;;
2019/05/24 05:20:44;;;;;;;9.2;4.5;;;;;;;13.57;65.73242;937.3833;;;;
2019/05/24 05:23:18;;;;;;;6.4;3.9;;;;;;;13.79;63.56934;937.4363;;;;
2019/05/24 05:25:52;;;;;;;8.6;3.8;;;;;;;14.22;62.94043;937.2965;;;;
2019/05/24 05:28:29;;;;;;;8.2;3.7;;;;;;;14.77;61.18652;937.3374;;;;
2019/05/24 05:31:08;;;;;;;9.2;3.8;;;;;;;15.83;57.96094;937.303;;;;
2019/05/24 05:33:34;;;;;;;10;3.7;;;;;;;16.01;56.71191;937.1874;;;;
2019/05/24 05:36:05;;;;;;;11.8;3.6;;;;;;;16.26;56.18945;937.1799;;;;
2019/05/24 05:38:36;;;;;;;9.1;3.5;;;;;;;16.96;54.36719;937.1774;;;;
2019/05/24 05:41:01;;;;;;;8.8;3.4;;;;;;;17.79;52.38086;937.2054;;;;
2019/05/24 05:43:46;;;;;;;5.8;2.8;;;;;;;18.46;49.44824;937.1691;;;;
2019/05/24 05:46:30;;;;;;;4.2;2.9;;;;;;;18.9;47.3457;937.1425;;;;
2019/05/24 05:54:20;;;;;;;4.9;2.7;;;;;;;19.09;46.3877;937.1269;;;;
2019/05/24 05:56:53;;;;;;;4.8;2.4;;;;;;;19.79;46.88086;937.0868;;;;
2019/05/24 05:59:26;;;;;;;5.6;2.7;;;;;;;20.43;44.53223;937.0056;;;;
2019/05/24 06:01:54;;;;;;;6;2.6;;;;;;;20.29;44.40039;936.973;;;;
2019/05/24 06:04:42;;;;;;;6.3;2.4;;;;;;;21.28;41.50391;937.0245;;;;
2019/05/24 06:07:21;;;;;;;8.3;2.3;;;;;;;20.94;42.36133;936.9747;;;;
2019/05/24 06:09:45;;;;;;;4.2;2.2;;;;;;;20.9;45.74805;936.9681;;;;
2019/05/24 06:12:17;;;;;;;4;2.3;;;;;;;21.89;39.19434;936.9641;;;;
2019/05/24 06:15:00;;;;;;;6.8;2.4;;;;;;;22.09;40.41992;936.9713;;;;
2019/05/24 06:17:46;;;;;;;6.7;2.4;;;;;;;22.41;38.91113;936.9604;;;;
2019/05/24 06:20:19;;;;;;;4.5;2.3;;;;;;;21.81;39.59668;936.9328;;;;
2019/05/24 06:22:47;;;;;;;4.7;2.4;;;;;;;21.82;39.8916;936.948;;;;
2019/05/24 06:25:21;;;;;;;7.1;2.3;;;;;;;22.43;40.94336;936.9314;;;;
2019/05/24 06:28:00;;;;;;;10;2.4;;;;;;;23.11;40.19531;936.8593;;;;
2019/05/24 06:30:27;;;;;;;6.5;2.3;;;;;;;23.28;38.03613;936.8986;;;;
2019/05/24 06:32:49;;;;;;;6.9;2.4;;;;;;;22.94;37.09082;936.8317;;;;
2019/05/24 06:35:22;;;;;;;8.4;2.7;;;;;;;23.22;35.91504;936.9073;;;;
2019/05/24 06:37:48;;;;;;;6.4;2.2;;;;;;;22.54;38.17188;936.9588;;;;
2019/05/24 06:40:21;;;;;;;6.4;2.4;;;;;;;23.09;39.67578;936.9147;;;;
2019/05/24 06:42:51;;;;;;;9.9;2.6;;;;;;;24.48;36.08789;936.8466;;;;
2019/05/24 06:45:17;;;;;;;4.7;2.3;;;;;;;24.19;33.53223;936.7687;;;;
2019/05/24 06:48:19;;;;;;;4;2.1;;;;;;;23.87;35.3916;936.7819;;;;
2019/05/24 06:50:43;;;;;;;4.8;2.2;;;;;;;23.65;35.49121;936.7708;;;;
2019/05/24 06:53:25;;;;;;;2.8;2.1;;;;;;;23.41;36.64844;936.7935;;;;
2019/05/24 06:55:59;;;;;;;10.2;2.7;;;;;;;23.81;38.37598;936.7637;;;;
2019/05/24 06:58:42;;;;;;;3.7;2.1;;;;;;;24.02;34.34277;936.7679;;;;
2019/05/24 07:01:16;;;;;;;3.4;1.9;;;;;;;24.74;33.44434;936.6805;;;;
2019/05/24 07:03:47;;;;;;;3.1;2.1;;;;;;;24.95;35.45313;936.7141;;;;
2019/05/24 07:06:38;;;;;;;2.9;2;;;;;;;25.33;34.03125;936.7205;;;;
2019/05/24 07:09:26;;;;;;;3.1;2.1;;;;;;;25.82;31.4082;936.6573;;;;
2019/05/24 07:12:07;;;;;;;2.9;1.9;;;;;;;25.55;33.18555;936.6077;;;;
2019/05/24 07:14:31;;;;;;;4.5;2;;;;;;;26.13;32.19922;936.5948;;;;
2019/05/24 07:17:12;;;;;;;4.9;1.9;;;;;;;26.87;30.98438;936.5457;;;;
2019/05/24 07:19:41;;;;;;;3.1;1.9;;;;;;;25.78;30.66113;936.5981;;;;
2019/05/24 07:22:23;;;;;;;3;1.6;;;;;;;25.52;33.71387;936.6125;;;;
2019/05/24 07:24:57;;;;;;;3.8;1.9;;;;;;;24.89;37.15918;936.6011;;;;
2019/05/24 07:27:30;;;;;;;6.1;1.8;;;;;;;24.48;36.59473;936.5118;;;;
2019/05/24 07:29:59;;;;;;;6.3;2.1;;;;;;;25.71;34.35547;936.5698;;;;
2019/05/24 07:32:29;;;;;;;4.8;2.4;;;;;;;26.63;33.14746;936.567;;;;
2019/05/24 07:34:57;;;;;;;2.8;2;;;;;;;25.83;34.84863;936.5556;;;;
2019/05/24 07:37:29;;;;;;;4.9;1.9;;;;;;;26.95;32.40137;936.4927;;;;
2019/05/24 07:40:09;;;;;;;2.8;2;;;;;;;28.07;29.45117;936.5715;;;;
2019/05/24 07:42:43;;;;;;;2.4;1.7;;;;;;;27.8;29.36328;936.5413;;;;
2019/05/24 07:45:18;;;;;;;3.3;1.5;;;;;;;27.67;31.00391;936.6205;;;;
2019/05/24 07:47:45;;;;;;;30;27.3;;;;;;;28.24;29.67578;936.5606;;;;
2019/05/24 07:50:16;;;;;;;3.6;2.1;;;;;;;28.23;30.28223;936.5314;;;;
2019/05/24 07:52:53;;;;;;;7.9;2.2;;;;;;;28.49;30.49023;936.5145;;;;
2019/05/24 07:55:25;;;;;;;30.1;26.9;;;;;;;28.91;29.16113;936.4828;;;;
2019/05/24 07:58:19;;;;;;;3.2;1.6;;;;;;;29.25;28.08789;936.5159;;;;
2019/05/24 08:00:47;;;;;;;3.8;1.6;;;;;;;29;30.45313;936.475;;;;
2019/05/24 08:03:13;;;;;;;3.5;1.8;;;;;;;28.21;28.37988;936.399;;;;
2019/05/24 08:05:46;;;;;;;10;4;;;;;;;28.88;29.31348;936.4881;;;;
2019/05/24 08:08:11;;;;;;;4.2;1.9;;;;;;;29.16;26.83105;936.3571;;;;
2019/05/24 08:10:41;;;;;;;4.4;1.9;;;;;;;29.42;27.78809;936.3765;;;;
2019/05/24 08:13:11;;;;;;;12.5;3;;;;;;;28.9;28.25586;936.3622;;;;
2019/05/24 08:15:38;;;;;;;8.1;6.3;;;;;;;29.42;28.70605;936.337;;;;
2019/05/24 08:18:07;;;;;;;3.6;2;;;;;;;28.65;28.96582;936.3393;;;;
2019/05/24 08:20:35;;;;;;;2.4;1.8;;;;;;;28.92;27.62695;936.3005;;;;
2019/05/24 08:23:07;;;;;;;2.5;1.8;;;;;;;28.67;30.7041;936.2606;;;;
2019/05/24 08:25:39;;;;;;;2.9;2.2;;;;;;;28.36;30.42188;936.2571;;;;
2019/05/24 08:28:10;;;;;;;3.9;1.9;;;;;;;28.24;30.42578;936.1884;;;;
2019/05/24 08:30:46;;;;;;;14.1;2.8;;;;;;;28.1;31.9375;936.1774;;;;
2019/05/24 08:33:16;;;;;;;5.1;2.2;;;;;;;28.48;31.07129;936.2143;;;;
2019/05/24 08:35:52;;;;;;;3.1;2.1;;;;;;;28.96;29.86621;936.0893;;;;
2019/05/24 08:38:32;;;;;;;4;2.5;;;;;;;28.77;28.40332;936.0561;;;;
2019/05/24 08:41:08;;;;;;;4;2.6;;;;;;;29.07;28.23145;936.0566;;;;
2019/05/24 08:43:58;;;;;;;3.6;2.3;;;;;;;28.79;27.86816;936.022;;;;
2019/05/24 08:46:23;;;;;;;3.4;2.4;;;;;;;28.7;28.56543;936.098;;;;
2019/05/24 08:48:55;;;;;;;5.3;2.4;;;;;;;28.83;28.28711;936.093;;;;
2019/05/24 08:51:19;;;;;;;82.4;74.2;;;;;;;28.74;30.80469;936.043;;;;
2019/05/24 08:54:01;;;;;;;4.7;2.6;;;;;;;28.42;30.88965;936.1235;;;;
2019/05/24 08:56:21;;;;;;;6;3.5;;;;;;;28.66;30.2998;936.0259;;;;
2019/05/24 08:58:56;;;;;;;4.7;2.9;;;;;;;28.52;29.27832;936.0859;;;;
2019/05/24 09:01:27;;;;;;;5.3;3.1;;;;;;;28.37;29.18555;936.0881;;;;
2019/05/24 09:03:52;;;;;;;20.9;11.3;;;;;;;27.92;31.93555;936.077;;;;
2019/05/24 09:06:27;;;;;;;8.1;3.1;;;;;;;27.96;31.67773;936.1309;;;;
2019/05/24 09:09:09;;;;;;;5;3;;;;;;;27.24;30.90332;936.1057;;;;
2019/05/24 09:11:44;;;;;;;6.5;3.2;;;;;;;26.96;33.24219;936.1475;;;;
2019/05/24 09:14:13;;;;;;;5.8;2.8;;;;;;;26.69;33.44727;936.0917;;;;
2019/05/24 09:16:47;;;;;;;5.5;2.6;;;;;;;26.55;35.87695;936.0616;;;;
2019/05/24 09:19:08;;;;;;;4.7;2.7;;;;;;;26.51;34.0625;936.0717;;;;
2019/05/24 09:21:31;;;;;;;3.6;2.8;;;;;;;26.35;34.32227;936.164;;;;
2019/05/24 09:24:07;;;;;;;5.9;3.1;;;;;;;26.32;32.62695;936.1425;;;;
2019/05/24 09:26:34;;;;;;;6.1;3.2;;;;;;;26.39;34.15918;936.0481;;;;
2019/05/24 09:29:15;;;;;;;4.4;2.8;;;;;;;26.07;35.57813;936.0902;;;;
2019/05/24 09:32:01;;;;;;;3.5;2.8;;;;;;;25.74;34.90137;936.1083;;;;
2019/05/24 09:34:33;;;;;;;5.2;2.6;;;;;;;25.85;35.48926;936.0302;;;;
2019/05/24 09:37:01;;;;;;;4.4;3;;;;;;;25.92;34.96289;936.0309;;;;
2019/05/24 09:39:36;;;;;;;3.8;2.7;;;;;;;25.66;35.91211;936.09;;;;
2019/05/24 09:42:14;;;;;;;4.7;2.6;;;;;;;25.46;37.1709;936.06;;;;
2019/05/24 09:44:43;;;;;;;4.7;2.9;;;;;;;25.24;35.18066;936.0176;;;;
2019/05/24 09:47:11;;;;;;;6.9;3;;;;;;;25.24;35.70117;936.0516;;;;
2019/05/24 09:49:38;;;;;;;3.7;3.3;;;;;;;25.05;38.05762;936.0031;;;;
2019/05/24 09:52:11;;;;;;;7;4.2;;;;;;;25;38.54883;936.0803;;;;
2019/05/24 09:54:39;;;;;;;5;2.9;;;;;;;24.95;38.72168;935.9659;;;;
2019/05/24 09:57:10;;;;;;;6.9;3.1;;;;;;;24.47;40.04688;935.9398;;;;
2019/05/24 09:59:45;;;;;;;6.2;3.2;;;;;;;24.67;39.33398;935.9315;;;;
2019/05/24 10:02:21;;;;;;;5.7;3.2;;;;;;;24.68;37.69531;935.8521;;;;
2019/05/24 10:04:47;;;;;;;7.4;3;;;;;;;24.64;38.26953;935.8801;;;;
2019/05/24 10:07:15;;;;;;;7.9;3.2;;;;;;;24.66;41.05469;935.8806;;;;
2019/05/24 10:09:45;;;;;;;6.4;3;;;;;;;24.7;38.41602;935.8356;;;;
2019/05/24 10:12:16;;;;;;;3.9;2.8;;;;;;;24.69;39.33594;935.8798;;;;
2019/05/24 10:14:58;;;;;;;4.7;3;;;;;;;24.8;40.06445;935.8812;;;;
2019/05/24 10:17:27;;;;;;;4.6;2.9;;;;;;;25.49;37.90527;935.8908;;;;
2019/05/24 10:19:58;;;;;;;5.3;3.1;;;;;;;25.21;39.93555;935.7953;;;;
2019/05/24 10:22:30;;;;;;;4.6;3.2;;;;;;;24.77;40.4873;935.8197;;;;
2019/05/24 10:24:52;;;;;;;3.7;3.2;;;;;;;24.83;40.70508;935.8365;;;;
2019/05/24 10:27:27;;;;;;;3.6;3.3;;;;;;;25.19;38.21094;935.8289;;;;
2019/05/24 10:29:53;;;;;;;4.9;3.1;;;;;;;25.15;39.37598;935.8441;;;;
2019/05/24 10:32:23;;;;;;;4.4;3.1;;;;;;;25.81;37.7793;935.8049;;;;
2019/05/24 10:34:55;;;;;;;5.4;3.2;;;;;;;26.08;37.02051;935.8017;;;;
2019/05/24 10:37:16;;;;;;;5.7;3;;;;;;;25.75;38.10547;935.7403;;;;
2019/05/24 10:39:42;;;;;;;5;3.5;;;;;;;25.88;37.06445;935.8112;;;;
2019/05/24 10:42:14;;;;;;;5.2;3.8;;;;;;;25.54;38.71289;935.7439;;;;
2019/05/24 10:44:49;;;;;;;5.5;3.5;;;;;;;25.54;37.85059;935.8182;;;;
2019/05/24 10:47:21;;;;;;;4.2;3.4;;;;;;;25.39;38.81934;935.7405;;;;
2019/05/24 10:50:01;;;;;;;8.8;3.7;;;;;;;24.72;40.22266;935.7668;;;;
2019/05/24 10:52:42;;;;;;;4.8;3.2;;;;;;;25.14;37.79297;935.6939;;;;
2019/05/24 10:55:25;;;;;;;13;3.7;;;;;;;25.4;38.76074;935.6479;;;;
2019/05/24 10:57:52;;;;;;;5.6;3.4;;;;;;;25.33;39.06152;935.7281;;;;
2019/05/24 11:00:43;;;;;;;6.2;3.6;;;;;;;25.19;39.37988;935.6725;;;;
2019/05/24 11:03:16;;;;;;;6;3.7;;;;;;;25.53;38.75977;935.6447;;;;
2019/05/24 11:06:09;;;;;;;11.6;3.9;;;;;;;25.51;40.0459;935.6353;;;;
2019/05/24 11:08:34;;;;;;;15.7;14;;;;;;;25.69;37.2373;935.6027;;;;
2019/05/24 11:11:03;;;;;;;38.8;34.8;;;;;;;25.9;38.33105;935.6038;;;;
2019/05/24 11:13:37;;;;;;;101.7;92.2;;;;;;;25.64;38.10742;935.5627;;;;
2019/05/24 11:16:02;;;;;;;90.4;82.1;;;;;;;25.52;36.64355;935.6209;;;;
2019/05/24 11:18:35;;;;;;;5.9;5;;;;;;;24.47;40.24707;935.6154;;;;
2019/05/24 11:21:08;;;;;;;8.7;6.8;;;;;;;23.97;39.33105;935.5084;;;;
2019/05/24 11:23:41;;;;;;;8.3;5.4;;;;;;;23.55;42.13965;935.5936;;;;
2019/05/24 11:26:22;;;;;;;10.8;4.3;;;;;;;23.8;42.2002;935.5208;;;;
2019/05/24 11:29:03;;;;;;;10.3;8.9;;;;;;;24.3;40.2793;935.5148;;;;
2019/05/24 11:31:29;;;;;;;6.6;5.1;;;;;;;24.24;39.17871;935.5709;;;;
2019/05/24 11:34:02;;;;;;;7.9;5.7;;;;;;;23.95;39.88281;935.5809;;;;
2019/05/24 11:36:34;;;;;;;5.8;4.6;;;;;;;23.04;42.40918;935.4698;;;;
2019/05/24 11:39:08;;;;;;;6.6;4.8;;;;;;;22.9;42.95996;935.4601;;;;
2019/05/24 11:41:43;;;;;;;11.8;5;;;;;;;22.73;44.11719;935.5105;;;;
2019/05/24 11:44:10;;;;;;;11.7;4.8;;;;;;;22.68;44.5;935.4794;;;;
2019/05/24 11:46:38;;;;;;;7.3;4.7;;;;;;;22.5;44.7627;935.5281;;;;
2019/05/24 11:49:10;;;;;;;6.8;4.5;;;;;;;22.74;43.48438;935.4573;;;;
2019/05/24 11:51:43;;;;;;;8.6;4.9;;;;;;;22.68;42.69141;935.3975;;;;
2019/05/24 11:54:14;;;;;;;7.7;4.7;;;;;;;23.11;43.05078;935.3855;;;;
2019/05/24 11:56:49;;;;;;;7.1;5;;;;;;;23.26;44.80469;935.381;;;;
2019/05/24 11:59:22;;;;;;;6.5;4.1;;;;;;;24.04;43.41113;935.4631;;;;
2019/05/24 12:01:55;;;;;;;7.7;4.4;;;;;;;24.98;42.20508;935.4397;;;;
2019/05/24 12:04:26;;;;;;;7.6;4.1;;;;;;;25.16;38.8457;935.3904;;;;
2019/05/24 12:06:52;;;;;;;7.9;4.3;;;;;;;24.65;41.38379;935.47;;;;
2019/05/24 12:09:21;;;;;;;7.1;4.3;;;;;;;25.32;38.06934;935.4514;;;;
2019/05/24 12:11:55;;;;;;;6.3;3.8;;;;;;;25.99;37.73535;935.4244;;;;
2019/05/24 12:14:21;;;;;;;6.2;3.7;;;;;;;26.47;35.74023;935.4559;;;;
2019/05/24 12:16:51;;;;;;;5.8;3.8;;;;;;;26.54;37.28418;935.4799;;;;
2019/05/24 12:19:17;;;;;;;5.9;3.9;;;;;;;26.56;35.15527;935.4147;;;;
2019/05/24 12:21:49;;;;;;;7.1;3.8;;;;;;;26.68;35.86328;935.391;;;;
2019/05/24 12:24:18;;;;;;;6.5;4.1;;;;;;;26.48;37.37402;935.4246;;;;
2019/05/24 12:26:51;;;;;;;6.3;4.3;;;;;;;25.83;36.65918;935.4321;;;;
2019/05/24 12:29:21;;;;;;;6.7;3.9;;;;;;;24.87;39.75293;935.3795;;;;
2019/05/24 12:31:48;;;;;;;7.7;4;;;;;;;24.11;40.01465;935.3223;;;;
2019/05/24 12:34:14;;;;;;;6.3;3.9;;;;;;;24.4;39.0752;935.3511;;;;
2019/05/24 12:36:51;;;;;;;6.4;4;;;;;;;24.55;38.6875;935.4019;;;;
2019/05/24 12:39:20;;;;;;;6.2;4.2;;;;;;;24.21;39.83594;935.38;;;;
2019/05/24 12:41:58;;;;;;;6.9;4.6;;;;;;;24.28;38.81738;935.3828;;;;
2019/05/24 12:44:32;;;;;;;6.4;4.2;;;;;;;24.19;39.11523;935.3094;;;;
2019/05/24 12:46:57;;;;;;;6.6;4;;;;;;;23.93;39.43359;935.3321;;;;
2019/05/24 12:49:28;;;;;;;7.5;4.1;;;;;;;23.61;42.33398;935.3155;;;;
2019/05/24 12:51:59;;;;;;;7.2;4.3;;;;;;;23.35;41.74512;935.4022;;;;
2019/05/24 12:54:46;;;;;;;6.1;4.1;;;;;;;22.97;42.19043;935.3849;;;;
2019/05/24 12:57:15;;;;;;;7.3;3.9;;;;;;;23.22;41.75684;935.4294;;;;
2019/05/24 12:59:42;;;;;;;8;3.8;;;;;;;23.42;39.08301;935.4009;;;;
2019/05/24 13:02:13;;;;;;;6.3;4.3;;;;;;;22.84;41.29785;935.4342;;;;
2019/05/24 13:04:48;;;;;;;5.6;3.9;;;;;;;23.25;39.47852;935.3912;;;;
2019/05/24 13:07:20;;;;;;;6.3;3.9;;;;;;;23.25;41.32422;935.4612;;;;
2019/05/24 13:09:52;;;;;;;6.5;4.2;;;;;;;23.18;41.6582;935.3973;;;;
2019/05/24 13:12:23;;;;;;;5.9;4;;;;;;;22.78;42.04395;935.3828;;;;
2019/05/24 13:14:50;;;;;;;4.4;3.6;;;;;;;23.08;39.75781;935.3392;;;;
2019/05/24 13:17:32;;;;;;;8.1;4.1;;;;;;;23.23;42.68555;935.3375;;;;
2019/05/24 13:19:58;;;;;;;5.2;3.8;;;;;;;23.64;39.53809;935.3541;;;;
2019/05/24 13:22:27;;;;;;;7.2;4.7;;;;;;;23.74;39.0166;935.3519;;;;
2019/05/24 13:24:58;;;;;;;8.1;3.5;;;;;;;23.86;40.50977;935.3178;;;;
2019/05/24 13:27:32;;;;;;;5.3;3.7;;;;;;;23.93;39.52832;935.2971;;;;
2019/05/24 13:30:06;;;;;;;9.8;8.7;;;;;;;24.02;38.77051;935.3792;;;;
2019/05/24 13:32:31;;;;;;;6.8;4.1;;;;;;;24.13;37.53223;935.3148;;;;
2019/05/24 13:35:02;;;;;;;5.6;4;;;;;;;24.22;37.00977;935.3308;;;;
2019/05/24 13:37:39;;;;;;;7.5;3.8;;;;;;;24.26;39.36816;935.4033;;;;
2019/05/24 13:40:05;;;;;;;5.6;3.9;;;;;;;24.7;36.63574;935.3625;;;;
2019/05/24 13:42:36;;;;;;;7.2;3.4;;;;;;;25.12;38.0166;935.3613;;;;
2019/05/24 13:45:01;;;;;;;5.3;3.4;;;;;;;25.26;38.66504;935.3489;;;;
2019/05/24 13:47:27;;;;;;;5.7;3.2;;;;;;;24.76;36.53418;935.3008;;;;
2019/05/24 13:49:56;;;;;;;4.5;3.2;;;;;;;24.56;37.17969;935.2704;;;;
2019/05/24 13:52:28;;;;;;;7.4;3.1;;;;;;;24.83;37.80273;935.3464;;;;
2019/05/24 13:55:02;;;;;;;4.7;3.5;;;;;;;24.85;36.25879;935.3219;;;;
2019/05/24 13:57:28;;;;;;;4.5;3.1;;;;;;;24.45;39.0791;935.3142;;;;
2019/05/24 13:59:56;;;;;;;7;3.5;;;;;;;24.03;37.87695;935.3133;;;;
2019/05/24 14:02:30;;;;;;;5.5;3.3;;;;;;;23.4;39.375;935.3122;;;;
2019/05/24 14:05:03;;;;;;;5.8;3.2;;;;;;;22.5;41.0791;935.2803;;;;
2019/05/24 14:07:40;;;;;;;6.5;3.4;;;;;;;22.49;41.32324;935.2656;;;;
2019/05/24 14:10:10;;;;;;;6.3;3.2;;;;;;;22.35;41.1123;935.2726;;;;
2019/05/24 14:12:43;;;;;;;5.3;3.1;;;;;;;22.24;40.96094;935.2025;;;;
2019/05/24 14:15:21;;;;;;;7.1;3.5;;;;;;;22.5;42.9209;935.2075;;;;
2019/05/24 14:17:58;;;;;;;4.1;2.9;;;;;;;22.53;41.24512;935.1731;;;;
2019/05/24 14:20:34;;;;;;;8;3.2;;;;;;;22.46;44.11328;935.1483;;;;
2019/05/24 14:23:06;;;;;;;7.5;3.1;;;;;;;22.79;41.39844;935.1077;;;;
2019/05/24 14:25:35;;;;;;;5;3.2;;;;;;;22.62;42.50977;935.1895;;;;
2019/05/24 14:28:01;;;;;;;36.3;30.1;;;;;;;22.9;40.24707;935.2042;;;;
2019/05/24 14:30:30;;;;;;;232.7;202.7;;;;;;;23.1;39.33594;935.2358;;;;
2019/05/24 14:33:00;;;;;;;5.7;3.1;;;;;;;23.07;39.35742;935.2014;;;;
2019/05/24 14:35:26;;;;;;;4.6;3.1;;;;;;;23.09;37.4209;935.2291;;;;
2019/05/24 14:37:58;;;;;;;8.2;3.1;;;;;;;23.04;39.12012;935.2619;;;;
2019/05/24 14:43:03;;;;;;;10;8.9;;;;;;;23.04;40.78809;935.2619;;;;
2019/05/24 14:45:31;;;;;;;6;2.9;;;;;;;22.98;39.74902;935.2538;;;;
2019/05/24 14:47:59;;;;;;;6.5;3.3;;;;;;;23.08;41.51953;935.2353;;;;
2019/05/24 14:50:25;;;;;;;5.3;3.1;;;;;;;22.87;41.07813;935.1958;;;;
2019/05/24 14:52:55;;;;;;;7.8;3.1;;;;;;;22.89;42.53516;935.1935;;;;
2019/05/24 14:55:24;;;;;;;8.4;3.7;;;;;;;23.15;42.05566;935.2458;;;;
2019/05/24 14:58:04;;;;;;;20.3;3.5;;;;;;;23.1;39.20703;935.2059;;;;
2019/05/24 15:00:30;;;;;;;6.4;3;;;;;;;23.01;41.50195;935.2311;;;;
2019/05/24 15:03:03;;;;;;;131.6;7.7;;;;;;;23.14;40.43262;935.295;;;;
2019/05/24 15:05:25;;;;;;;6.7;3;;;;;;;23.23;38.63086;935.2776;;;;
2019/05/24 15:07:57;;;;;;;4.1;2.6;;;;;;;23.37;38.79688;935.3077;;;;
2019/05/24 15:10:31;;;;;;;5.8;2.9;;;;;;;22.93;40.86035;935.2787;;;;